sensor_id;sensor_type;location;lat;lon;timestamp;P1;durP1;ratioP1;P2;durP2;ratioP2
56122;SDS011;42426;46.104;19.656;2022-12-11T00:02:07;3.63;;;2.85;;
56122;SDS011;42426;46.104;19.656;2022-12-11T00:04:33;5.38;;;2.90;;
56122;SDS011;42426;46.104;19.656;2022-12-11T00:06:59;3.80;;;2.65;;
56122;SDS011;42426;46.104;19.656;2022-12-11T00:09:25;4.25;;;3.25;;
56122;SDS011;42426;46.104;19.656;2022-12-11T00:11:52;3.25;;;2.70;;
56122;SDS011;42426;46.104;19.656;2022-12-11T00:14:18;3.42;;;2.97;;
56122;SDS011;42426;46.104;19.656;2022-12-11T00:16:46;5.07;;;3.25;;
56122;SDS011;42426;46.104;19.656;2022-12-11T00:19:13;4.40;;;2.95;;
56122;SDS011;42426;46.104;19.656;2022-12-11T00:21:39;4.82;;;2.78;;
56122;SDS011;42426;46.104;19.656;2022-12-11T00:24:06;8.88;;;4.13;;
56122;SDS011;42426;46.104;19.656;2022-12-11T00:26:32;3.92;;;2.80;;
56122;SDS011;42426;46.104;19.656;2022-12-11T00:28:58;5.10;;;3.03;;
56122;SDS011;42426;46.104;19.656;2022-12-11T00:31:25;4.70;;;3.40;;
56122;SDS011;42426;46.104;19.656;2022-12-11T00:33:51;6.40;;;3.88;;
56122;SDS011;42426;46.104;19.656;2022-12-11T00:36:21;4.57;;;4.18;;
56122;SDS011;42426;46.104;19.656;2022-12-11T00:38:48;4.47;;;3.53;;
56122;SDS011;42426;46.104;19.656;2022-12-11T00:41:14;4.57;;;3.10;;
56122;SDS011;42426;46.104;19.656;2022-12-11T00:43:40;4.97;;;3.35;;
56122;SDS011;42426;46.104;19.656;2022-12-11T00:46:06;4.43;;;3.40;;
56122;SDS011;42426;46.104;19.656;2022-12-11T00:48:32;5.47;;;3.40;;
56122;SDS011;42426;46.104;19.656;2022-12-11T00:50:59;7.10;;;4.15;;
56122;SDS011;42426;46.104;19.656;2022-12-11T00:53:25;5.22;;;3.65;;
56122;SDS011;42426;46.104;19.656;2022-12-11T00:55:51;7.65;;;4.85;;
56122;SDS011;42426;46.104;19.656;2022-12-11T00:58:18;6.70;;;4.13;;
56122;SDS011;42426;46.104;19.656;2022-12-11T01:00:44;8.80;;;4.53;;
56122;SDS011;42426;46.104;19.656;2022-12-11T01:03:13;6.35;;;4.55;;
56122;SDS011;42426;46.104;19.656;2022-12-11T01:05:39;5.72;;;4.10;;
56122;SDS011;42426;46.104;19.656;2022-12-11T01:08:05;6.93;;;4.53;;
56122;SDS011;42426;46.104;19.656;2022-12-11T01:10:31;8.02;;;4.88;;
56122;SDS011;42426;46.104;19.656;2022-12-11T01:12:59;5.45;;;4.35;;
56122;SDS011;42426;46.104;19.656;2022-12-11T01:15:26;8.85;;;4.78;;
56122;SDS011;42426;46.104;19.656;2022-12-11T01:17:54;7.10;;;4.68;;
56122;SDS011;42426;46.104;19.656;2022-12-11T01:20:21;6.75;;;4.53;;
56122;SDS011;42426;46.104;19.656;2022-12-11T01:22:47;5.18;;;4.20;;
56122;SDS011;42426;46.104;19.656;2022-12-11T01:25:16;6.40;;;4.60;;
56122;SDS011;42426;46.104;19.656;2022-12-11T01:27:43;4.63;;;3.90;;
56122;SDS011;42426;46.104;19.656;2022-12-11T01:30:09;8.30;;;4.97;;
56122;SDS011;42426;46.104;19.656;2022-12-11T01:32:36;7.07;;;4.57;;
56122;SDS011;42426;46.104;19.656;2022-12-11T01:35:03;7.00;;;4.40;;
56122;SDS011;42426;46.104;19.656;2022-12-11T01:37:29;8.43;;;5.70;;
56122;SDS011;42426;46.104;19.656;2022-12-11T01:39:55;8.85;;;7.00;;
56122;SDS011;42426;46.104;19.656;2022-12-11T01:42:21;7.85;;;5.53;;
56122;SDS011;42426;46.104;19.656;2022-12-11T01:47:15;9.32;;;7.28;;
56122;SDS011;42426;46.104;19.656;2022-12-11T01:49:41;9.73;;;5.80;;
56122;SDS011;42426;46.104;19.656;2022-12-11T01:52:18;12.13;;;6.85;;
56122;SDS011;42426;46.104;19.656;2022-12-11T01:54:46;10.43;;;6.38;;
56122;SDS011;42426;46.104;19.656;2022-12-11T01:57:13;12.00;;;8.20;;
56122;SDS011;42426;46.104;19.656;2022-12-11T01:59:42;10.07;;;7.25;;
56122;SDS011;42426;46.104;19.656;2022-12-11T02:02:42;10.65;;;7.20;;
56122;SDS011;42426;46.104;19.656;2022-12-11T02:05:02;10.32;;;6.97;;
56122;SDS011;42426;46.104;19.656;2022-12-11T02:07:29;11.65;;;7.25;;
56122;SDS011;42426;46.104;19.656;2022-12-11T02:09:57;11.40;;;7.43;;
56122;SDS011;42426;46.104;19.656;2022-12-11T02:12:40;12.75;;;7.45;;
56122;SDS011;42426;46.104;19.656;2022-12-11T02:20:30;10.70;;;7.47;;
56122;SDS011;42426;46.104;19.656;2022-12-11T02:30:50;12.43;;;7.03;;
56122;SDS011;42426;46.104;19.656;2022-12-11T02:33:17;12.70;;;7.13;;
56122;SDS011;42426;46.104;19.656;2022-12-11T02:35:46;9.95;;;7.30;;
56122;SDS011;42426;46.104;19.656;2022-12-11T02:38:24;12.75;;;7.55;;
56122;SDS011;42426;46.104;19.656;2022-12-11T02:40:51;11.05;;;7.53;;
56122;SDS011;42426;46.104;19.656;2022-12-11T02:43:18;11.60;;;7.30;;
56122;SDS011;42426;46.104;19.656;2022-12-11T02:45:46;9.48;;;6.47;;
56122;SDS011;42426;46.104;19.656;2022-12-11T02:48:13;9.57;;;7.25;;
56122;SDS011;42426;46.104;19.656;2022-12-11T02:50:41;11.88;;;7.95;;
56122;SDS011;42426;46.104;19.656;2022-12-11T02:53:09;8.52;;;6.20;;
56122;SDS011;42426;46.104;19.656;2022-12-11T02:55:36;10.63;;;7.40;;
56122;SDS011;42426;46.104;19.656;2022-12-11T02:58:06;10.68;;;7.57;;
56122;SDS011;42426;46.104;19.656;2022-12-11T03:00:38;10.45;;;7.07;;
56122;SDS011;42426;46.104;19.656;2022-12-11T03:03:04;15.45;;;7.13;;
56122;SDS011;42426;46.104;19.656;2022-12-11T03:05:31;12.07;;;7.03;;
56122;SDS011;42426;46.104;19.656;2022-12-11T03:07:57;15.20;;;8.88;;
56122;SDS011;42426;46.104;19.656;2022-12-11T03:10:23;11.50;;;7.55;;
56122;SDS011;42426;46.104;19.656;2022-12-11T03:12:49;13.20;;;8.43;;
56122;SDS011;42426;46.104;19.656;2022-12-11T03:15:20;13.27;;;8.55;;
56122;SDS011;42426;46.104;19.656;2022-12-11T03:17:53;11.88;;;7.50;;
56122;SDS011;42426;46.104;19.656;2022-12-11T03:20:38;12.80;;;7.15;;
56122;SDS011;42426;46.104;19.656;2022-12-11T03:30:43;14.75;;;8.40;;
56122;SDS011;42426;46.104;19.656;2022-12-11T03:33:13;13.88;;;9.00;;
56122;SDS011;42426;46.104;19.656;2022-12-11T03:35:44;14.40;;;9.95;;
56122;SDS011;42426;46.104;19.656;2022-12-11T03:38:22;13.88;;;8.90;;
56122;SDS011;42426;46.104;19.656;2022-12-11T03:41:19;13.68;;;9.05;;
56122;SDS011;42426;46.104;19.656;2022-12-11T03:43:48;15.43;;;8.40;;
56122;SDS011;42426;46.104;19.656;2022-12-11T03:46:17;12.00;;;7.72;;
56122;SDS011;42426;46.104;19.656;2022-12-11T03:48:47;11.48;;;7.65;;
56122;SDS011;42426;46.104;19.656;2022-12-11T03:51:14;14.60;;;8.38;;
56122;SDS011;42426;46.104;19.656;2022-12-11T03:53:42;14.32;;;8.80;;
56122;SDS011;42426;46.104;19.656;2022-12-11T03:56:09;12.32;;;9.05;;
56122;SDS011;42426;46.104;19.656;2022-12-11T03:58:37;14.13;;;9.55;;
56122;SDS011;42426;46.104;19.656;2022-12-11T04:01:03;14.05;;;9.15;;
56122;SDS011;42426;46.104;19.656;2022-12-11T04:03:33;18.13;;;11.43;;
56122;SDS011;42426;46.104;19.656;2022-12-11T04:05:59;16.35;;;11.63;;
56122;SDS011;42426;46.104;19.656;2022-12-11T04:08:24;23.90;;;14.40;;
56122;SDS011;42426;46.104;19.656;2022-12-11T04:10:50;30.75;;;15.73;;
56122;SDS011;42426;46.104;19.656;2022-12-11T04:13:36;27.67;;;14.48;;
56122;SDS011;42426;46.104;19.656;2022-12-11T04:16:03;16.52;;;10.25;;
56122;SDS011;42426;46.104;19.656;2022-12-11T04:18:28;19.63;;;11.35;;
56122;SDS011;42426;46.104;19.656;2022-12-11T04:21:13;46.38;;;23.90;;
56122;SDS011;42426;46.104;19.656;2022-12-11T04:23:57;30.42;;;16.08;;
56122;SDS011;42426;46.104;19.656;2022-12-11T04:26:42;25.75;;;13.77;;
56122;SDS011;42426;46.104;19.656;2022-12-11T04:29:09;30.45;;;17.20;;
56122;SDS011;42426;46.104;19.656;2022-12-11T04:31:35;20.75;;;12.98;;
56122;SDS011;42426;46.104;19.656;2022-12-11T04:34:01;33.70;;;16.77;;
56122;SDS011;42426;46.104;19.656;2022-12-11T04:36:27;38.10;;;20.98;;
56122;SDS011;42426;46.104;19.656;2022-12-11T04:38:52;20.15;;;12.13;;
56122;SDS011;42426;46.104;19.656;2022-12-11T04:41:18;55.95;;;26.48;;
56122;SDS011;42426;46.104;19.656;2022-12-11T04:43:44;42.08;;;22.35;;
56122;SDS011;42426;46.104;19.656;2022-12-11T04:46:11;33.67;;;18.55;;
56122;SDS011;42426;46.104;19.656;2022-12-11T04:48:42;31.42;;;15.55;;
56122;SDS011;42426;46.104;19.656;2022-12-11T04:51:08;42.10;;;22.98;;
56122;SDS011;42426;46.104;19.656;2022-12-11T04:53:35;30.23;;;17.58;;
56122;SDS011;42426;46.104;19.656;2022-12-11T04:56:03;31.98;;;17.95;;
56122;SDS011;42426;46.104;19.656;2022-12-11T04:58:30;23.80;;;13.23;;
56122;SDS011;42426;46.104;19.656;2022-12-11T05:00:56;26.95;;;13.88;;
56122;SDS011;42426;46.104;19.656;2022-12-11T05:03:22;22.83;;;14.88;;
56122;SDS011;42426;46.104;19.656;2022-12-11T05:05:51;24.33;;;13.90;;
56122;SDS011;42426;46.104;19.656;2022-12-11T05:08:18;17.45;;;12.27;;
56122;SDS011;42426;46.104;19.656;2022-12-11T05:10:54;21.25;;;12.82;;
56122;SDS011;42426;46.104;19.656;2022-12-11T05:13:23;19.75;;;13.52;;
56122;SDS011;42426;46.104;19.656;2022-12-11T05:15:50;22.75;;;13.30;;
56122;SDS011;42426;46.104;19.656;2022-12-11T05:18:16;25.80;;;15.20;;
56122;SDS011;42426;46.104;19.656;2022-12-11T05:20:42;20.92;;;13.68;;
56122;SDS011;42426;46.104;19.656;2022-12-11T05:23:08;22.60;;;14.73;;
56122;SDS011;42426;46.104;19.656;2022-12-11T05:25:33;22.25;;;13.98;;
56122;SDS011;42426;46.104;19.656;2022-12-11T05:27:59;21.42;;;13.65;;
56122;SDS011;42426;46.104;19.656;2022-12-11T05:30:25;24.27;;;13.70;;
56122;SDS011;42426;46.104;19.656;2022-12-11T05:32:51;19.70;;;13.77;;
56122;SDS011;42426;46.104;19.656;2022-12-11T05:35:17;31.17;;;19.60;;
56122;SDS011;42426;46.104;19.656;2022-12-11T05:37:42;26.48;;;16.85;;
56122;SDS011;42426;46.104;19.656;2022-12-11T05:40:09;39.70;;;21.73;;
56122;SDS011;42426;46.104;19.656;2022-12-11T05:42:36;74.55;;;38.42;;
56122;SDS011;42426;46.104;19.656;2022-12-11T05:45:02;80.07;;;39.35;;
56122;SDS011;42426;46.104;19.656;2022-12-11T05:47:29;134.52;;;69.20;;
56122;SDS011;42426;46.104;19.656;2022-12-11T05:49:55;145.38;;;77.72;;
56122;SDS011;42426;46.104;19.656;2022-12-11T05:52:21;73.88;;;33.97;;
56122;SDS011;42426;46.104;19.656;2022-12-11T05:54:47;102.63;;;49.38;;
56122;SDS011;42426;46.104;19.656;2022-12-11T05:57:15;110.25;;;58.45;;
56122;SDS011;42426;46.104;19.656;2022-12-11T05:59:41;87.38;;;38.72;;
56122;SDS011;42426;46.104;19.656;2022-12-11T06:02:07;154.30;;;74.75;;
56122;SDS011;42426;46.104;19.656;2022-12-11T06:04:33;75.70;;;37.92;;
56122;SDS011;42426;46.104;19.656;2022-12-11T06:06:58;92.60;;;42.28;;
56122;SDS011;42426;46.104;19.656;2022-12-11T06:09:24;63.42;;;31.27;;
56122;SDS011;42426;46.104;19.656;2022-12-11T06:11:50;80.22;;;38.95;;
56122;SDS011;42426;46.104;19.656;2022-12-11T06:14:15;92.68;;;43.55;;
56122;SDS011;42426;46.104;19.656;2022-12-11T06:16:41;60.22;;;31.25;;
56122;SDS011;42426;46.104;19.656;2022-12-11T06:19:11;69.80;;;35.65;;
56122;SDS011;42426;46.104;19.656;2022-12-11T06:21:40;46.08;;;24.30;;
56122;SDS011;42426;46.104;19.656;2022-12-11T06:24:06;71.43;;;33.15;;
56122;SDS011;42426;46.104;19.656;2022-12-11T06:26:32;74.03;;;39.30;;
56122;SDS011;42426;46.104;19.656;2022-12-11T06:28:58;52.60;;;32.70;;
56122;SDS011;42426;46.104;19.656;2022-12-11T06:31:24;29.48;;;19.52;;
56122;SDS011;42426;46.104;19.656;2022-12-11T06:33:49;30.00;;;19.30;;
56122;SDS011;42426;46.104;19.656;2022-12-11T06:36:16;28.45;;;15.02;;
56122;SDS011;42426;46.104;19.656;2022-12-11T06:38:44;25.90;;;16.92;;
56122;SDS011;42426;46.104;19.656;2022-12-11T06:41:11;24.92;;;14.80;;
56122;SDS011;42426;46.104;19.656;2022-12-11T06:43:38;22.58;;;14.65;;
56122;SDS011;42426;46.104;19.656;2022-12-11T06:46:05;24.45;;;15.95;;
56122;SDS011;42426;46.104;19.656;2022-12-11T06:48:32;22.30;;;12.88;;
56122;SDS011;42426;46.104;19.656;2022-12-11T06:50:58;24.33;;;14.23;;
56122;SDS011;42426;46.104;19.656;2022-12-11T06:53:24;21.65;;;13.93;;
56122;SDS011;42426;46.104;19.656;2022-12-11T06:55:50;24.17;;;15.18;;
56122;SDS011;42426;46.104;19.656;2022-12-11T06:58:16;21.30;;;13.50;;
56122;SDS011;42426;46.104;19.656;2022-12-11T07:00:41;23.17;;;13.90;;
56122;SDS011;42426;46.104;19.656;2022-12-11T07:03:08;23.98;;;14.95;;
56122;SDS011;42426;46.104;19.656;2022-12-11T07:05:34;22.42;;;15.63;;
56122;SDS011;42426;46.104;19.656;2022-12-11T07:08:00;20.00;;;12.73;;
56122;SDS011;42426;46.104;19.656;2022-12-11T07:10:25;22.77;;;14.40;;
56122;SDS011;42426;46.104;19.656;2022-12-11T07:12:52;22.88;;;13.38;;
56122;SDS011;42426;46.104;19.656;2022-12-11T07:15:18;24.05;;;14.43;;
56122;SDS011;42426;46.104;19.656;2022-12-11T07:17:44;20.27;;;13.55;;
56122;SDS011;42426;46.104;19.656;2022-12-11T07:20:10;23.70;;;13.68;;
56122;SDS011;42426;46.104;19.656;2022-12-11T07:22:36;26.83;;;14.85;;
56122;SDS011;42426;46.104;19.656;2022-12-11T07:25:02;24.23;;;13.82;;
56122;SDS011;42426;46.104;19.656;2022-12-11T07:27:28;23.65;;;14.57;;
56122;SDS011;42426;46.104;19.656;2022-12-11T07:29:53;23.83;;;14.20;;
56122;SDS011;42426;46.104;19.656;2022-12-11T07:32:20;20.92;;;12.52;;
56122;SDS011;42426;46.104;19.656;2022-12-11T07:34:49;26.75;;;13.52;;
56122;SDS011;42426;46.104;19.656;2022-12-11T07:37:15;21.00;;;12.68;;
56122;SDS011;42426;46.104;19.656;2022-12-11T07:39:41;24.08;;;12.82;;
56122;SDS011;42426;46.104;19.656;2022-12-11T07:42:07;23.40;;;14.15;;
56122;SDS011;42426;46.104;19.656;2022-12-11T07:44:32;21.92;;;12.07;;
56122;SDS011;42426;46.104;19.656;2022-12-11T07:46:58;21.48;;;13.48;;
56122;SDS011;42426;46.104;19.656;2022-12-11T07:49:24;23.98;;;14.52;;
56122;SDS011;42426;46.104;19.656;2022-12-11T07:51:50;27.58;;;15.02;;
56122;SDS011;42426;46.104;19.656;2022-12-11T07:54:16;26.35;;;16.00;;
56122;SDS011;42426;46.104;19.656;2022-12-11T07:56:42;22.90;;;13.02;;
56122;SDS011;42426;46.104;19.656;2022-12-11T07:59:09;24.35;;;14.15;;
56122;SDS011;42426;46.104;19.656;2022-12-11T08:01:35;33.88;;;15.75;;
56122;SDS011;42426;46.104;19.656;2022-12-11T08:04:03;23.52;;;12.60;;
56122;SDS011;42426;46.104;19.656;2022-12-11T08:06:33;28.23;;;14.27;;
56122;SDS011;42426;46.104;19.656;2022-12-11T08:09:01;25.30;;;14.07;;
56122;SDS011;42426;46.104;19.656;2022-12-11T08:11:29;21.90;;;13.23;;
56122;SDS011;42426;46.104;19.656;2022-12-11T08:13:55;47.30;;;25.15;;
56122;SDS011;42426;46.104;19.656;2022-12-11T08:16:23;89.60;;;41.03;;
56122;SDS011;42426;46.104;19.656;2022-12-11T08:18:51;112.47;;;53.58;;
56122;SDS011;42426;46.104;19.656;2022-12-11T08:21:18;75.82;;;34.75;;
56122;SDS011;42426;46.104;19.656;2022-12-11T08:23:49;78.90;;;37.83;;
56122;SDS011;42426;46.104;19.656;2022-12-11T08:26:16;131.13;;;63.67;;
56122;SDS011;42426;46.104;19.656;2022-12-11T08:28:45;80.93;;;39.40;;
56122;SDS011;42426;46.104;19.656;2022-12-11T08:31:11;127.05;;;64.93;;
56122;SDS011;42426;46.104;19.656;2022-12-11T08:33:41;98.28;;;45.78;;
56122;SDS011;42426;46.104;19.656;2022-12-11T08:36:09;80.45;;;37.88;;
56122;SDS011;42426;46.104;19.656;2022-12-11T08:38:36;95.90;;;46.72;;
56122;SDS011;42426;46.104;19.656;2022-12-11T08:41:12;68.38;;;33.72;;
56122;SDS011;42426;46.104;19.656;2022-12-11T08:43:58;43.58;;;22.48;;
56122;SDS011;42426;46.104;19.656;2022-12-11T08:46:26;51.55;;;27.10;;
56122;SDS011;42426;46.104;19.656;2022-12-11T08:48:54;60.00;;;31.05;;
56122;SDS011;42426;46.104;19.656;2022-12-11T08:51:21;59.13;;;30.20;;
56122;SDS011;42426;46.104;19.656;2022-12-11T08:53:49;36.47;;;19.77;;
56122;SDS011;42426;46.104;19.656;2022-12-11T08:56:16;75.47;;;36.45;;
56122;SDS011;42426;46.104;19.656;2022-12-11T08:58:45;49.78;;;27.35;;
56122;SDS011;42426;46.104;19.656;2022-12-11T09:03:40;94.63;;;44.30;;
56122;SDS011;42426;46.104;19.656;2022-12-11T09:06:07;76.65;;;36.47;;
56122;SDS011;42426;46.104;19.656;2022-12-11T09:08:38;78.57;;;36.45;;
56122;SDS011;42426;46.104;19.656;2022-12-11T09:11:06;103.90;;;50.03;;
56122;SDS011;42426;46.104;19.656;2022-12-11T09:13:39;53.40;;;28.02;;
56122;SDS011;42426;46.104;19.656;2022-12-11T09:16:10;62.00;;;31.55;;
56122;SDS011;42426;46.104;19.656;2022-12-11T09:18:40;76.60;;;35.00;;
56122;SDS011;42426;46.104;19.656;2022-12-11T09:21:08;34.35;;;18.75;;
56122;SDS011;42426;46.104;19.656;2022-12-11T09:23:37;68.00;;;34.22;;
56122;SDS011;42426;46.104;19.656;2022-12-11T09:26:04;43.28;;;25.13;;
56122;SDS011;42426;46.104;19.656;2022-12-11T09:28:31;25.77;;;15.68;;
56122;SDS011;42426;46.104;19.656;2022-12-11T09:30:58;28.10;;;15.75;;
56122;SDS011;42426;46.104;19.656;2022-12-11T09:33:24;24.60;;;15.57;;
56122;SDS011;42426;46.104;19.656;2022-12-11T09:35:56;30.02;;;15.63;;
56122;SDS011;42426;46.104;19.656;2022-12-11T09:38:23;27.85;;;14.82;;
56122;SDS011;42426;46.104;19.656;2022-12-11T09:40:48;28.27;;;14.50;;
56122;SDS011;42426;46.104;19.656;2022-12-11T09:45:55;27.00;;;15.88;;
56122;SDS011;42426;46.104;19.656;2022-12-11T09:48:23;23.95;;;15.13;;
56122;SDS011;42426;46.104;19.656;2022-12-11T09:50:50;23.60;;;12.50;;
56122;SDS011;42426;46.104;19.656;2022-12-11T09:53:26;20.80;;;12.85;;
56122;SDS011;42426;46.104;19.656;2022-12-11T09:56:04;23.33;;;14.18;;
56122;SDS011;42426;46.104;19.656;2022-12-11T10:01:52;23.67;;;14.13;;
56122;SDS011;42426;46.104;19.656;2022-12-11T10:09:47;26.63;;;13.40;;
56122;SDS011;42426;46.104;19.656;2022-12-11T10:17:46;24.83;;;13.57;;
56122;SDS011;42426;46.104;19.656;2022-12-11T10:20:21;22.50;;;13.48;;
56122;SDS011;42426;46.104;19.656;2022-12-11T10:23:05;28.90;;;14.68;;
56122;SDS011;42426;46.104;19.656;2022-12-11T10:25:39;26.10;;;14.25;;
56122;SDS011;42426;46.104;19.656;2022-12-11T10:28:12;25.02;;;14.25;;
56122;SDS011;42426;46.104;19.656;2022-12-11T10:30:43;24.67;;;14.38;;
56122;SDS011;42426;46.104;19.656;2022-12-11T10:33:19;28.15;;;17.38;;
56122;SDS011;42426;46.104;19.656;2022-12-11T10:35:48;23.50;;;13.82;;
56122;SDS011;42426;46.104;19.656;2022-12-11T10:38:16;26.25;;;15.38;;
56122;SDS011;42426;46.104;19.656;2022-12-11T10:40:53;30.02;;;20.05;;
56122;SDS011;42426;46.104;19.656;2022-12-11T10:43:36;25.98;;;13.50;;
56122;SDS011;42426;46.104;19.656;2022-12-11T10:46:13;31.98;;;19.83;;
56122;SDS011;42426;46.104;19.656;2022-12-11T10:48:54;32.83;;;16.65;;
56122;SDS011;42426;46.104;19.656;2022-12-11T10:51:23;27.08;;;13.85;;
56122;SDS011;42426;46.104;19.656;2022-12-11T10:56:50;26.55;;;14.02;;
56122;SDS011;42426;46.104;19.656;2022-12-11T11:02:03;24.98;;;15.32;;
56122;SDS011;42426;46.104;19.656;2022-12-11T11:04:35;31.15;;;16.55;;
56122;SDS011;42426;46.104;19.656;2022-12-11T11:07:13;22.73;;;13.57;;
56122;SDS011;42426;46.104;19.656;2022-12-11T11:09:43;22.50;;;14.43;;
56122;SDS011;42426;46.104;19.656;2022-12-11T11:12:20;23.48;;;15.10;;
56122;SDS011;42426;46.104;19.656;2022-12-11T11:15:11;31.88;;;18.33;;
56122;SDS011;42426;46.104;19.656;2022-12-11T11:17:59;40.00;;;22.42;;
56122;SDS011;42426;46.104;19.656;2022-12-11T11:20:35;35.58;;;18.58;;
56122;SDS011;42426;46.104;19.656;2022-12-11T11:23:02;23.05;;;13.85;;
56122;SDS011;42426;46.104;19.656;2022-12-11T11:25:37;28.23;;;16.45;;
56122;SDS011;42426;46.104;19.656;2022-12-11T11:28:04;27.02;;;16.40;;
56122;SDS011;42426;46.104;19.656;2022-12-11T11:30:35;32.65;;;16.52;;
56122;SDS011;42426;46.104;19.656;2022-12-11T11:33:09;26.58;;;16.33;;
56122;SDS011;42426;46.104;19.656;2022-12-11T11:35:38;23.70;;;13.43;;
56122;SDS011;42426;46.104;19.656;2022-12-11T11:38:18;30.10;;;17.67;;
56122;SDS011;42426;46.104;19.656;2022-12-11T11:40:53;33.28;;;19.05;;
56122;SDS011;42426;46.104;19.656;2022-12-11T11:43:43;31.00;;;17.70;;
56122;SDS011;42426;46.104;19.656;2022-12-11T11:49:03;22.08;;;11.73;;
56122;SDS011;42426;46.104;19.656;2022-12-11T11:51:35;20.45;;;11.18;;
56122;SDS011;42426;46.104;19.656;2022-12-11T11:54:36;18.33;;;10.98;;
56122;SDS011;42426;46.104;19.656;2022-12-11T11:57:12;14.95;;;9.85;;
56122;SDS011;42426;46.104;19.656;2022-12-11T11:59:52;17.92;;;11.60;;
56122;SDS011;42426;46.104;19.656;2022-12-11T12:02:22;24.88;;;14.20;;
56122;SDS011;42426;46.104;19.656;2022-12-11T12:04:48;23.00;;;12.43;;
56122;SDS011;42426;46.104;19.656;2022-12-11T12:18:41;31.73;;;17.52;;
56122;SDS011;42426;46.104;19.656;2022-12-11T12:26:34;32.55;;;18.73;;
56122;SDS011;42426;46.104;19.656;2022-12-11T12:34:56;24.23;;;13.27;;
56122;SDS011;42426;46.104;19.656;2022-12-11T12:48:28;27.83;;;15.88;;
56122;SDS011;42426;46.104;19.656;2022-12-11T12:50:54;31.98;;;18.15;;
56122;SDS011;42426;46.104;19.656;2022-12-11T12:53:23;32.42;;;16.80;;
56122;SDS011;42426;46.104;19.656;2022-12-11T12:55:52;26.92;;;15.52;;
56122;SDS011;42426;46.104;19.656;2022-12-11T13:00:53;32.88;;;17.02;;
56122;SDS011;42426;46.104;19.656;2022-12-11T13:03:31;27.98;;;17.27;;
56122;SDS011;42426;46.104;19.656;2022-12-11T13:06:05;30.15;;;16.60;;
56122;SDS011;42426;46.104;19.656;2022-12-11T13:08:40;35.28;;;19.35;;
56122;SDS011;42426;46.104;19.656;2022-12-11T13:11:18;30.70;;;17.15;;
56122;SDS011;42426;46.104;19.656;2022-12-11T13:13:47;21.00;;;13.52;;
56122;SDS011;42426;46.104;19.656;2022-12-11T13:16:25;28.38;;;15.85;;
56122;SDS011;42426;46.104;19.656;2022-12-11T13:18:59;24.95;;;13.77;;
56122;SDS011;42426;46.104;19.656;2022-12-11T13:21:29;35.58;;;17.77;;
56122;SDS011;42426;46.104;19.656;2022-12-11T13:24:23;35.72;;;19.23;;
56122;SDS011;42426;46.104;19.656;2022-12-11T13:26:41;30.08;;;17.92;;
56122;SDS011;42426;46.104;19.656;2022-12-11T13:30:02;20.50;;;12.65;;
56122;SDS011;42426;46.104;19.656;2022-12-11T13:31:55;33.30;;;17.85;;
56122;SDS011;42426;46.104;19.656;2022-12-11T13:34:23;32.10;;;17.50;;
56122;SDS011;42426;46.104;19.656;2022-12-11T13:36:52;26.98;;;15.93;;
56122;SDS011;42426;46.104;19.656;2022-12-11T13:39:21;25.67;;;14.30;;
56122;SDS011;42426;46.104;19.656;2022-12-11T13:41:53;48.63;;;24.55;;
56122;SDS011;42426;46.104;19.656;2022-12-11T13:44:26;43.20;;;27.35;;
56122;SDS011;42426;46.104;19.656;2022-12-11T13:46:59;39.75;;;23.48;;
56122;SDS011;42426;46.104;19.656;2022-12-11T13:49:34;32.33;;;18.65;;
56122;SDS011;42426;46.104;19.656;2022-12-11T13:52:06;42.40;;;24.45;;
56122;SDS011;42426;46.104;19.656;2022-12-11T13:54:45;38.70;;;22.02;;
56122;SDS011;42426;46.104;19.656;2022-12-11T13:57:16;35.45;;;20.73;;
56122;SDS011;42426;46.104;19.656;2022-12-11T13:59:51;37.03;;;24.75;;
56122;SDS011;42426;46.104;19.656;2022-12-11T14:04:48;44.45;;;23.80;;
56122;SDS011;42426;46.104;19.656;2022-12-11T14:07:22;58.85;;;28.83;;
56122;SDS011;42426;46.104;19.656;2022-12-11T14:09:55;29.80;;;17.20;;
56122;SDS011;42426;46.104;19.656;2022-12-11T14:12:29;39.05;;;22.73;;
56122;SDS011;42426;46.104;19.656;2022-12-11T14:14:56;33.55;;;19.27;;
56122;SDS011;42426;46.104;19.656;2022-12-11T14:17:34;21.13;;;12.60;;
56122;SDS011;42426;46.104;19.656;2022-12-11T14:20:02;23.98;;;16.33;;
56122;SDS011;42426;46.104;19.656;2022-12-11T14:22:31;35.63;;;15.98;;
56122;SDS011;42426;46.104;19.656;2022-12-11T14:25:00;28.90;;;17.85;;
56122;SDS011;42426;46.104;19.656;2022-12-11T14:27:45;26.70;;;17.20;;
56122;SDS011;42426;46.104;19.656;2022-12-11T14:30:35;31.70;;;19.67;;
56122;SDS011;42426;46.104;19.656;2022-12-11T14:33:03;29.58;;;15.50;;
56122;SDS011;42426;46.104;19.656;2022-12-11T14:35:31;34.45;;;19.67;;
56122;SDS011;42426;46.104;19.656;2022-12-11T14:37:59;33.20;;;18.27;;
56122;SDS011;42426;46.104;19.656;2022-12-11T14:40:30;27.85;;;15.95;;
56122;SDS011;42426;46.104;19.656;2022-12-11T14:43:03;25.47;;;14.07;;
56122;SDS011;42426;46.104;19.656;2022-12-11T14:45:37;22.60;;;14.27;;
56122;SDS011;42426;46.104;19.656;2022-12-11T14:48:10;33.22;;;16.90;;
56122;SDS011;42426;46.104;19.656;2022-12-11T14:50:52;28.20;;;14.65;;
56122;SDS011;42426;46.104;19.656;2022-12-11T14:53:29;29.60;;;16.80;;
56122;SDS011;42426;46.104;19.656;2022-12-11T14:56:00;32.45;;;18.17;;
56122;SDS011;42426;46.104;19.656;2022-12-11T14:58:28;43.65;;;24.20;;
56122;SDS011;42426;46.104;19.656;2022-12-11T15:01:05;48.03;;;26.80;;
56122;SDS011;42426;46.104;19.656;2022-12-11T15:03:44;38.60;;;22.90;;
56122;SDS011;42426;46.104;19.656;2022-12-11T15:06:23;85.32;;;44.92;;
56122;SDS011;42426;46.104;19.656;2022-12-11T15:08:51;54.85;;;29.70;;
56122;SDS011;42426;46.104;19.656;2022-12-11T15:11:18;115.30;;;63.40;;
56122;SDS011;42426;46.104;19.656;2022-12-11T15:13:54;83.20;;;36.58;;
56122;SDS011;42426;46.104;19.656;2022-12-11T15:16:21;89.88;;;44.90;;
56122;SDS011;42426;46.104;19.656;2022-12-11T15:18:49;94.70;;;46.00;;
56122;SDS011;42426;46.104;19.656;2022-12-11T15:21:17;106.47;;;54.10;;
56122;SDS011;42426;46.104;19.656;2022-12-11T15:23:52;74.05;;;39.97;;
56122;SDS011;42426;46.104;19.656;2022-12-11T15:26:31;68.32;;;38.03;;
56122;SDS011;42426;46.104;19.656;2022-12-11T15:32:20;64.20;;;38.00;;
56122;SDS011;42426;46.104;19.656;2022-12-11T15:34:58;44.45;;;23.80;;
56122;SDS011;42426;46.104;19.656;2022-12-11T15:37:25;39.58;;;21.40;;
56122;SDS011;42426;46.104;19.656;2022-12-11T15:39:57;53.17;;;29.80;;
56122;SDS011;42426;46.104;19.656;2022-12-11T15:42:37;39.90;;;25.15;;
56122;SDS011;42426;46.104;19.656;2022-12-11T15:45:06;41.05;;;26.13;;
56122;SDS011;42426;46.104;19.656;2022-12-11T15:47:39;34.13;;;21.35;;
56122;SDS011;42426;46.104;19.656;2022-12-11T15:52:41;37.17;;;23.02;;
56122;SDS011;42426;46.104;19.656;2022-12-11T15:55:07;56.47;;;28.73;;
56122;SDS011;42426;46.104;19.656;2022-12-11T15:57:33;49.90;;;27.17;;
56122;SDS011;42426;46.104;19.656;2022-12-11T15:59:59;54.80;;;32.08;;
56122;SDS011;42426;46.104;19.656;2022-12-11T16:02:25;51.88;;;31.92;;
56122;SDS011;42426;46.104;19.656;2022-12-11T16:04:52;48.38;;;27.20;;